Time;durP1;ratioP1;P1;durP2;ratioP2;P2;SDS_P1;SDS_P2;PMS_P1;PMS_P2;Temp;Humidity;BMP_temperature;BMP_pressure;BME280_temperature;BME280_humidity;BME280_pressure;Samples;Min_cycle;Max_cycle;Signal;HPM_P1;HPM_P2
2023/06/20 07:23:02;;;;;;;8.02;6.47;;;;;;;-145.79;56.67;76065.44;5341613;27;20394;-66
2023/06/20 07:25:33;;;;;;;8.48;7.70;;;;;;;-145.79;56.61;76065.44;5334565;28;20116;-65
2023/06/20 07:28:04;;;;;;;8.45;7.30;;;;;;;-145.79;56.54;76071.78;5321980;28;20016;-66
2023/06/20 07:30:36;;;;;;;7.05;6.32;;;;;;;-145.79;56.40;76063.31;5334365;28;20062;-66
2023/06/20 07:33:07;;;;;;;6.82;6.22;;;;;;;-145.79;56.11;76042.13;5343041;27;20031;-66
2023/06/20 07:35:38;;;;;;;7.60;6.78;;;;;;;-145.79;55.96;76023.06;5343544;27;20485;-66
2023/06/20 07:38:10;;;;;;;10.48;6.88;;;;;;;-145.79;55.88;76004.00;5342272;28;20023;-66
2023/06/20 07:40:41;;;;;;;7.20;6.53;;;;;;;-145.79;55.50;75999.75;5336276;28;20165;-66
2023/06/20 07:43:12;;;;;;;7.10;6.15;;;;;;;-145.79;54.96;75987.03;5338391;28;20477;-66
2023/06/20 07:45:44;;;;;;;7.15;6.28;;;;;;;-145.79;55.12;75991.28;5342561;27;20027;-66
2023/06/20 07:48:15;;;;;;;6.68;5.97;;;;;;;-145.79;53.70;75989.16;5343078;27;20019;-68
2023/06/20 07:50:46;;;;;;;6.22;5.72;;;;;;;-145.79;54.55;75993.41;5342556;28;20028;-66
2023/06/20 07:53:18;;;;;;;6.93;6.18;;;;;;;-145.79;54.64;75999.75;5342742;28;20027;-66
2023/06/20 07:55:49;;;;;;;10.70;6.90;;;;;;;-145.79;55.29;75995.50;5343059;28;20015;-66
2023/06/20 07:58:21;;;;;;;7.80;6.20;;;;;;;-145.79;54.79;75976.44;5329552;28;20073;-67
2023/06/20 08:00:56;;;;;;;7.72;6.93;;;;;;;-145.79;54.23;75976.44;5321606;28;20524;-67
2023/06/20 08:03:27;;;;;;;7.80;6.97;;;;;;;-145.79;53.73;75976.44;5321543;28;20537;-67
2023/06/20 08:05:59;;;;;;;7.95;7.25;;;;;;;-145.79;54.60;75978.56;5320563;28;20059;-66
2023/06/20 08:08:30;;;;;;;8.98;7.93;;;;;;;-145.79;55.39;75972.22;5321014;28;20029;-66
2023/06/20 08:11:02;;;;;;;7.25;6.60;;;;;;;-145.79;55.28;75959.50;5322057;28;20111;-66
2023/06/20 08:13:33;;;;;;;7.15;6.50;;;;;;;-145.79;54.90;75944.66;5320130;28;20032;-66
2023/06/20 08:16:05;;;;;;;6.28;5.68;;;;;;;-145.79;54.35;75938.31;5321930;28;20054;-66
2023/06/20 08:18:36;;;;;;;6.03;5.50;;;;;;;-145.79;54.40;75938.31;5320113;28;20046;-66
2023/06/20 08:21:07;;;;;;;6.80;6.03;;;;;;;-145.79;54.29;75940.41;5320182;28;20388;-66
2023/06/20 08:23:39;;;;;;;6.50;5.60;;;;;;;-145.79;54.11;75927.72;5320753;28;20467;-65
2023/06/20 08:26:10;;;;;;;6.57;5.97;;;;;;;-145.79;53.55;75931.94;5328679;28;20034;-66
2023/06/20 08:28:41;;;;;;;8.07;5.32;;;;;;;-145.79;53.48;75934.06;5340095;27;20467;-66
2023/06/20 08:31:12;;;;;;;5.65;5.07;;;;;;;-145.79;53.33;75927.72;5332961;27;20375;-67
2023/06/20 08:33:44;;;;;;;6.15;5.60;;;;;;;-145.79;53.69;75927.72;5313252;28;20463;-67
2023/06/20 08:36:15;;;;;;;5.40;4.95;;;;;;;-145.79;53.78;75919.22;5313761;28;20020;-65
2023/06/20 08:38:46;;;;;;;6.75;5.80;;;;;;;-145.79;53.79;75906.53;5307087;28;20035;-66
2023/06/20 08:41:18;;;;;;;5.80;5.30;;;;;;;-145.79;53.73;75900.16;5305771;28;20028;-66
2023/06/20 08:43:49;;;;;;;6.03;5.43;;;;;;;-145.79;53.22;75900.16;5306778;28;20028;-64
2023/06/20 08:46:24;;;;;;;5.68;5.07;;;;;;;-145.79;52.95;75898.03;5306453;28;20028;-66
2023/06/20 08:48:55;;;;;;;5.77;4.83;;;;;;;-145.79;52.65;75887.44;5306192;28;20031;-66
2023/06/20 08:51:28;;;;;;;6.68;4.65;;;;;;;-145.79;52.73;75885.34;5307768;28;20024;-66
2023/06/20 08:54:02;;;;;;;5.68;5.18;;;;;;;-145.79;52.90;75887.44;5316216;28;20016;-66
2023/06/20 08:56:33;;;;;;;5.88;5.38;;;;;;;-145.79;52.76;75889.56;5306186;28;20031;-66
2023/06/20 08:59:05;;;;;;;6.20;5.32;;;;;;;-145.79;52.35;75876.84;5306313;28;20020;-65
2023/06/20 09:01:36;;;;;;;5.30;4.78;;;;;;;-145.79;52.95;75857.78;5305414;28;20032;-66
2023/06/20 09:04:10;;;;;;;5.40;5.00;;;;;;;-145.79;52.26;75842.97;5306071;28;20027;-65
2023/06/20 09:06:42;;;;;;;5.20;4.70;;;;;;;-145.79;52.13;75842.97;5321176;28;20024;-65
2023/06/20 09:09:17;;;;;;;5.40;4.90;;;;;;;-145.79;51.93;75834.47;5324707;28;20043;-66
2023/06/20 09:11:56;;;;;;;6.55;5.20;;;;;;;-145.79;51.69;75836.59;5326980;28;20485;-68
2023/06/20 09:14:30;;;;;;;5.43;4.93;;;;;;;-145.79;51.66;75830.25;5326829;28;20027;-67
2023/06/20 09:17:03;;;;;;;5.45;4.80;;;;;;;-145.79;51.15;75817.53;5326327;28;20031;-68
2023/06/20 09:19:43;;;;;;;5.38;4.88;;;;;;;-145.79;51.47;75800.56;5325822;28;20038;-67
2023/06/20 09:22:17;;;;;;;5.82;5.20;;;;;;;-145.79;51.25;75813.28;5322788;28;20096;-67
2023/06/20 09:24:49;;;;;;;5.05;4.57;;;;;;;-145.79;50.98;75813.28;5305604;28;20028;-67
2023/06/20 09:27:21;;;;;;;8.60;5.28;;;;;;;-145.79;50.18;75811.19;5305740;28;20020;-67
2023/06/20 09:30:00;;;;;;;7.07;5.25;;;;;;;-145.79;50.02;75809.06;5304823;28;20055;-67
2023/06/20 09:32:36;;;;;;;5.28;4.88;;;;;;;-145.79;49.86;75789.97;5312198;28;20064;-66
2023/06/20 09:35:10;;;;;;;5.10;4.72;;;;;;;-145.79;49.90;75770.91;5326748;28;20106;-67
2023/06/20 09:37:51;;;;;;;6.45;5.30;;;;;;;-145.79;49.87;75766.69;5326134;28;20413;-67
2023/06/20 09:40:22;;;;;;;4.90;4.45;;;;;;;-145.79;49.76;75796.34;5313769;28;20433;-67
2023/06/20 09:42:57;;;;;;;5.45;5.00;;;;;;;-145.79;50.12;75785.75;5322186;28;20038;-67
2023/06/20 09:45:28;;;;;;;6.45;4.15;;;;;;;-145.79;49.59;75775.16;5325418;28;20470;-67
2023/06/20 09:48:00;;;;;;;5.55;5.05;;;;;;;-145.79;49.32;75766.69;5326555;28;20059;-67
2023/06/20 09:50:33;;;;;;;5.95;4.90;;;;;;;-145.79;49.27;75762.44;5325479;28;20420;-67
2023/06/20 09:53:14;;;;;;;6.30;5.75;;;;;;;-145.79;48.97;75770.91;5326334;28;20030;-68
2023/06/20 09:55:46;;;;;;;6.95;4.90;;;;;;;-145.79;48.70;75770.91;5326229;28;20055;-68
2023/06/20 09:58:19;;;;;;;5.25;4.50;;;;;;;-145.79;48.33;75760.31;5304771;28;20059;-68
2023/06/20 10:00:51;;;;;;;5.30;4.80;;;;;;;-145.79;48.02;75753.97;5305075;28;20016;-67
2023/06/20 10:03:22;;;;;;;5.35;4.18;;;;;;;-145.79;48.01;75741.25;5305206;28;20104;-67
2023/06/20 10:05:55;;;;;;;4.78;3.80;;;;;;;-145.79;47.74;75739.13;5303996;28;20059;-67
2023/06/20 10:08:27;;;;;;;4.25;3.90;;;;;;;-145.79;47.75;75722.19;5304716;28;20024;-67
2023/06/20 10:10:58;;;;;;;4.20;3.60;;;;;;;-145.79;47.30;75715.81;5304515;28;20024;-67
2023/06/20 10:13:30;;;;;;;4.45;3.67;;;;;;;-145.79;47.08;75698.88;5304820;28;20126;-68
2023/06/20 10:16:03;;;;;;;4.03;3.65;;;;;;;-145.79;47.50;75707.34;5305124;28;20024;-68
2023/06/20 10:18:36;;;;;;;4.00;3.50;;;;;;;-145.79;47.49;75686.16;5303937;28;20038;-67
2023/06/20 10:21:13;;;;;;;4.35;3.33;;;;;;;-145.79;47.08;75698.88;5308010;28;20092;-67
2023/06/20 10:23:44;;;;;;;4.13;3.22;;;;;;;-145.79;46.66;75673.44;5318794;28;20040;-67
2023/06/20 10:26:17;;;;;;;3.45;3.15;;;;;;;-145.79;46.45;75669.22;5306986;28;20027;-67
2023/06/20 10:28:56;;;;;;;3.75;2.80;;;;;;;-145.79;46.26;75664.97;5314041;28;20024;-67
2023/06/20 10:32:03;;;;;;;3.08;2.78;;;;;;;-145.79;45.83;75643.78;5312189;28;20090;-67
2023/06/20 10:34:36;;;;;;;3.90;3.28;;;;;;;-145.79;45.25;75622.59;5303947;28;20031;-68
2023/06/20 10:37:09;;;;;;;3.00;2.70;;;;;;;-145.79;44.61;75618.38;5307638;28;20080;-67
2023/06/20 10:39:57;;;;;;;4.45;2.67;;;;;;;-145.79;44.26;75609.88;5315793;28;20418;-68
2023/06/20 10:42:40;;;;;;;3.95;2.70;;;;;;;-145.79;43.01;75609.88;5324190;28;20484;-67
2023/06/20 10:45:28;;;;;;;3.83;2.50;;;;;;;-145.79;42.87;75584.47;5304063;28;20061;-68
2023/06/20 10:48:03;;;;;;;3.35;2.60;;;;;;;-145.79;42.47;75592.94;5312500;28;20023;-68
2023/06/20 10:50:37;;;;;;;2.88;2.65;;;;;;;-145.79;42.42;75567.53;5325034;28;20024;-68
2023/06/20 10:53:09;;;;;;;4.63;4.22;;;;;;;-145.79;42.37;75576.00;5325588;28;20470;-66
2023/06/20 10:55:41;;;;;;;13.73;12.52;;;;;;;-145.79;43.03;75554.81;5324480;28;20501;-67
2023/06/20 10:58:12;;;;;;;4.30;2.88;;;;;;;-145.79;43.12;75563.28;5324925;28;20027;-67
2023/06/20 11:00:43;;;;;;;3.33;2.78;;;;;;;-145.79;42.83;75529.38;5323721;28;20031;-67
2023/06/20 11:03:16;;;;;;;3.47;2.92;;;;;;;-145.79;41.95;75512.44;5325192;28;20020;-66
2023/06/20 11:05:51;;;;;;;4.57;2.60;;;;;;;-145.79;41.83;75520.91;5309310;28;20491;-66
2023/06/20 11:08:27;;;;;;;3.08;2.78;;;;;;;-145.79;41.37;75520.91;5303064;28;20032;-66
2023/06/20 11:11:01;;;;;;;4.57;2.83;;;;;;;-145.79;41.17;75506.06;5303731;28;20052;-66
2023/06/20 11:13:38;;;;;;;3.40;2.80;;;;;;;-145.79;42.03;75514.56;5315317;28;20035;-67
2023/06/20 11:16:19;;;;;;;4.15;2.90;;;;;;;-145.79;41.54;75472.19;5323953;28;20030;-68
2023/06/20 11:18:50;;;;;;;3.92;2.50;;;;;;;-145.79;40.73;75470.06;5324773;28;20031;-68
2023/06/20 11:21:21;;;;;;;3.30;3.00;;;;;;;-145.79;40.80;75465.81;5320378;28;20398;-68
2023/06/20 11:24:02;;;;;;;3.00;2.80;;;;;;;-145.79;41.02;75463.69;5303671;28;20111;-68
2023/06/20 11:26:35;;;;;;;3.85;2.58;;;;;;;-145.79;40.01;75436.16;5304860;28;20035;-68
2023/06/20 11:29:06;;;;;;;5.15;3.00;;;;;;;-145.79;40.55;75446.75;5302990;28;20020;-68
2023/06/20 11:31:39;;;;;;;4.38;2.88;;;;;;;-145.79;39.95;75440.41;5303706;28;20050;-68
2023/06/20 11:34:12;;;;;;;3.65;2.53;;;;;;;-145.79;39.68;75400.16;5307279;28;20032;-67
2023/06/20 11:36:44;;;;;;;4.18;2.53;;;;;;;-145.79;39.73;75389.56;5321526;28;20019;-67
2023/06/20 11:39:15;;;;;;;3.42;3.13;;;;;;;-145.79;39.84;75402.25;5322657;28;20084;-66
2023/06/20 11:41:50;;;;;;;3.65;2.70;;;;;;;-145.79;39.56;75381.09;5323056;28;20036;-64
2023/06/20 11:44:24;;;;;;;5.40;3.03;;;;;;;-145.79;39.50;75391.66;5324220;28;20030;-67
2023/06/20 11:46:58;;;;;;;4.18;3.13;;;;;;;-145.79;39.37;75381.09;5324901;28;20482;-67
2023/06/20 11:49:33;;;;;;;6.38;2.55;;;;;;;-145.79;39.70;75374.72;5321000;28;20057;-65
2023/06/20 11:52:07;;;;;;;4.57;3.03;;;;;;;-145.79;38.75;75347.19;5297374;28;20069;-67
2023/06/20 11:54:51;;;;;;;2.80;2.60;;;;;;;-145.79;38.30;75347.19;5307483;28;20032;-65
2023/06/20 11:57:24;;;;;;;3.08;2.70;;;;;;;-145.79;38.49;75347.19;5303398;28;20475;-66
2023/06/20 11:59:58;;;;;;;3.10;2.80;;;;;;;-145.79;38.37;75330.22;5309674;28;20031;-66
2023/06/20 12:02:29;;;;;;;5.43;4.80;;;;;;;-145.79;38.36;75330.22;5322903;28;20501;-66
2023/06/20 12:05:00;;;;;;;5.10;3.70;;;;;;;-145.79;38.29;75304.81;5323509;28;20305;-65
2023/06/20 12:07:54;;;;;;;5.82;5.32;;;;;;;-145.79;38.42;75292.09;5324805;28;20118;-66
2023/06/20 12:10:28;;;;;;;3.15;2.75;;;;;;;-145.79;38.67;75328.13;5328776;28;20020;-67
2023/06/20 12:13:04;;;;;;;3.20;2.70;;;;;;;-145.79;38.47;75326.00;5318422;28;20028;-67
2023/06/20 12:15:38;;;;;;;3.28;2.97;;;;;;;-145.79;37.80;75309.03;5307160;28;20101;-66
2023/06/20 12:18:09;;;;;;;4.03;2.73;;;;;;;-145.79;37.77;75296.34;5306332;28;20031;-65
2023/06/20 12:20:40;;;;;;;3.33;3.03;;;;;;;-145.79;37.99;75298.47;5309079;28;20456;-67
2023/06/20 12:23:14;;;;;;;3.05;2.78;;;;;;;-145.79;38.19;75283.63;5328714;28;20405;-67
2023/06/20 12:25:46;;;;;;;5.10;2.88;;;;;;;-145.79;37.92;75270.91;5327489;28;20046;-67
2023/06/20 12:28:17;;;;;;;2.78;2.58;;;;;;;-145.79;36.69;75283.63;5328207;28;20032;-66
2023/06/20 12:30:49;;;;;;;3.10;2.80;;;;;;;-145.79;36.39;75256.09;5312256;28;20383;-66
2023/06/20 12:33:23;;;;;;;3.03;2.70;;;;;;;-145.79;36.48;75266.69;5319360;28;20027;-66
2023/06/20 12:35:54;;;;;;;2.77;2.57;;;;;;;-145.79;36.49;75270.91;5328091;28;20130;-66
2023/06/20 12:38:26;;;;;;;3.45;3.10;;;;;;;-145.79;36.68;75247.59;5327970;28;20024;-66
2023/06/20 12:40:58;;;;;;;3.10;2.90;;;;;;;-145.79;36.60;75241.25;5327006;28;20027;-66
2023/06/20 12:43:29;;;;;;;2.80;2.58;;;;;;;-145.79;36.36;75237.03;5328202;28;20022;-66
2023/06/20 12:46:00;;;;;;;3.30;3.00;;;;;;;-145.79;36.46;75217.94;5325611;28;20031;-65
2023/06/20 12:48:32;;;;;;;14.98;13.68;;;;;;;-145.79;36.92;75220.06;5326273;28;20478;-67
2023/06/20 12:51:03;;;;;;;3.75;3.00;;;;;;;-145.79;36.98;75232.78;5327535;28;20035;-67
2023/06/20 12:53:35;;;;;;;3.05;2.50;;;;;;;-145.79;36.98;75239.13;5310868;28;20099;-65
2023/06/20 12:56:06;;;;;;;5.35;2.80;;;;;;;-145.79;36.75;75203.13;5307411;28;20080;-65
2023/06/20 12:58:37;;;;;;;3.58;2.67;;;;;;;-145.79;36.46;75203.13;5306499;28;20084;-65
2023/06/20 13:01:09;;;;;;;3.45;3.15;;;;;;;-145.79;36.34;75215.84;5305087;28;20068;-65
2023/06/20 13:03:40;;;;;;;3.83;2.50;;;;;;;-145.79;36.54;75224.31;5312617;28;20019;-65
2023/06/20 13:06:15;;;;;;;3.28;2.97;;;;;;;-145.79;36.82;75245.50;5325708;28;20110;-64
2023/06/20 13:08:46;;;;;;;;;;;;;;;-145.79;36.96;75226.44;5327003;28;20182;-64
2023/06/20 13:11:18;;;;;;;8.27;7.43;;;;;;;-145.79;36.69;75224.31;5316828;28;20080;-66
2023/06/20 13:13:49;;;;;;;5.47;3.28;;;;;;;-145.79;36.71;75226.44;5306238;28;20697;-65
2023/06/20 13:16:21;;;;;;;3.53;2.60;;;;;;;-145.79;36.81;75205.25;5305274;28;20077;-67
2023/06/20 13:18:58;;;;;;;3.50;3.17;;;;;;;-145.79;36.55;75190.41;5314295;28;20023;-67
2023/06/20 13:21:29;;;;;;;3.92;3.15;;;;;;;-145.79;36.72;75184.06;5308712;28;20177;-68
2023/06/20 13:24:00;;;;;;;3.35;2.70;;;;;;;-145.79;36.71;75167.09;5305873;28;20106;-67
2023/06/20 13:26:32;;;;;;;2.85;2.65;;;;;;;-145.79;36.54;75165.00;5305203;28;20027;-67
2023/06/20 13:29:03;;;;;;;3.80;3.10;;;;;;;-145.79;36.40;75131.09;5304658;28;20482;-68
2023/06/20 13:31:34;;;;;;;3.63;3.33;;;;;;;-145.79;36.13;75114.16;5305477;28;20027;-67
2023/06/20 13:34:06;;;;;;;2.58;2.38;;;;;;;-145.79;36.07;75126.84;5305702;28;20027;-67
2023/06/20 13:36:37;;;;;;;3.92;3.30;;;;;;;-145.79;36.39;75126.84;5323146;28;20032;-67
2023/06/20 13:39:09;;;;;;;10.75;9.70;;;;;;;-145.79;36.15;75133.22;5307182;28;20020;-68
2023/06/20 13:41:40;;;;;;;4.28;3.95;;;;;;;-145.79;35.87;75118.38;5305196;28;20112;-68
2023/06/20 13:44:11;;;;;;;4.30;3.03;;;;;;;-145.79;35.44;75118.38;5305010;28;20498;-67
2023/06/20 13:46:43;;;;;;;6.80;3.13;;;;;;;-145.79;35.67;75109.91;5305467;28;20085;-67
2023/06/20 13:49:14;;;;;;;3.80;2.63;;;;;;;-145.79;35.29;75084.50;5307916;28;20028;-67
2023/06/20 13:51:46;;;;;;;2.95;2.70;;;;;;;-145.79;35.68;75086.59;5322614;28;20378;-66
2023/06/20 13:54:17;;;;;;;5.82;3.15;;;;;;;-145.79;35.87;75095.09;5322891;28;20032;-68
2023/06/20 13:56:49;;;;;;;3.00;2.70;;;;;;;-145.79;35.85;75090.84;5305037;28;20467;-68
2023/06/20 13:59:21;;;;;;;3.58;2.92;;;;;;;-145.79;35.49;75105.69;5305133;28;20059;-68
2023/06/20 14:01:52;;;;;;;3.72;2.92;;;;;;;-145.79;35.56;75107.78;5304953;28;20036;-69
2023/06/20 14:04:23;;;;;;;6.65;3.65;;;;;;;-145.79;35.76;75097.19;5304155;28;20034;-68
2023/06/20 14:06:55;;;;;;;6.82;3.28;;;;;;;-145.79;35.84;75086.59;5305077;28;20024;-67
2023/06/20 14:09:27;;;;;;;4.38;3.55;;;;;;;-145.79;35.85;75046.34;5318648;28;20031;-68
2023/06/20 14:12:01;;;;;;;4.07;3.10;;;;;;;-145.79;36.03;75067.53;5315678;28;20079;-66
2023/06/20 14:14:33;;;;;;;6.93;3.33;;;;;;;-145.79;35.96;75088.72;5304437;28;20031;-69
2023/06/20 14:17:04;;;;;;;5.72;3.47;;;;;;;-145.79;36.43;75099.31;5304735;28;20370;-69
2023/06/20 14:19:36;;;;;;;5.38;3.42;;;;;;;-145.79;36.13;75097.19;5304209;28;20020;-68
2023/06/20 14:22:07;;;;;;;4.22;3.40;;;;;;;-145.79;36.12;75073.91;5304582;28;20131;-69
2023/06/20 14:24:38;;;;;;;3.20;2.97;;;;;;;-145.79;36.21;75078.13;5322682;28;20102;-68
2023/06/20 14:27:10;;;;;;;4.18;3.53;;;;;;;-145.79;36.40;75086.59;5324537;28;20034;-67
2023/06/20 14:29:41;;;;;;;4.25;3.85;;;;;;;-145.79;36.54;75101.44;5310613;28;20024;-67
2023/06/20 14:32:12;;;;;;;3.83;3.42;;;;;;;-145.79;36.79;75088.72;5303371;28;20020;-71
2023/06/20 14:34:44;;;;;;;4.47;3.60;;;;;;;-145.79;36.93;75103.56;5311490;28;20071;-71
2023/06/20 14:37:15;;;;;;;3.70;3.40;;;;;;;-145.79;37.14;75109.91;5341719;27;20027;-72
2023/06/20 14:39:47;;;;;;;4.10;3.70;;;;;;;-145.79;37.09;75101.44;5343096;27;20024;-71
2023/06/20 14:42:18;;;;;;;4.03;3.38;;;;;;;-145.79;37.33;75105.69;5319796;28;20023;-71
2023/06/20 14:44:49;;;;;;;3.65;3.35;;;;;;;-145.79;37.19;75109.91;5317001;28;20409;-73
2023/06/20 14:47:21;;;;;;;4.85;3.88;;;;;;;-145.79;37.08;75105.69;5324305;28;20028;-73
2023/06/20 14:49:54;;;;;;;4.20;3.80;;;;;;;-145.79;37.27;75116.25;5325110;28;20356;-72
2023/06/20 14:52:25;;;;;;;4.45;4.05;;;;;;;-145.79;37.45;75116.25;5323850;28;20031;-74
2023/06/20 14:54:57;;;;;;;4.57;3.83;;;;;;;-145.79;37.40;75139.56;5325083;28;20050;-74
2023/06/20 14:57:28;;;;;;;10.70;4.00;;;;;;;-145.79;38.10;75256.09;5325408;28;20122;-74
2023/06/20 14:59:59;;;;;;;9.60;3.38;;;;;;;-145.79;38.90;75321.75;5311811;28;20056;-73
2023/06/20 15:02:30;;;;;;;11.00;2.88;;;;;;;-145.79;39.35;75338.72;5304285;28;20030;-73
2023/06/20 15:05:03;;;;;;;7.03;2.70;;;;;;;-145.79;40.31;75436.16;5304515;28;20023;-72
2023/06/20 15:07:34;;;;;;;4.78;2.58;;;;;;;-145.79;40.73;75440.41;5313647;28;20020;-72
2023/06/20 15:10:06;;;;;;;55.78;50.47;;;;;;;-145.79;43.76;75482.78;5325119;28;20354;-76
2023/06/20 15:12:37;;;;;;;10.25;5.28;;;;;;;-145.79;46.82;75603.53;5324941;28;20467;-76
2023/06/20 15:15:09;;;;;;;11.05;4.70;;;;;;;-145.79;50.25;75616.25;5323274;28;20130;-76
2023/06/20 15:17:40;;;;;;;7.00;3.05;;;;;;;-145.79;51.24;75626.84;5325236;28;20038;-78
2023/06/20 15:20:11;;;;;;;5.75;2.33;;;;;;;-145.79;52.55;75620.47;5314256;28;20035;-78
2023/06/20 15:22:46;;;;;;;4.93;2.53;;;;;;;-145.79;52.55;75612.00;5302879;28;20058;-77
2023/06/20 15:25:17;;;;;;;6.00;2.60;;;;;;;-145.79;53.99;75607.78;5303647;28;20016;-78
2023/06/20 15:27:52;;;;;;;10.35;2.97;;;;;;;-145.79;55.50;75601.41;5303379;28;20020;-78
2023/06/20 15:30:25;;;;;;;7.03;3.53;;;;;;;-145.79;56.62;75609.88;5304171;28;20047;-78
2023/06/20 15:32:57;;;;;;;5.82;3.00;;;;;;;-145.79;54.10;75641.66;5303946;28;20387;-78
2023/06/20 15:35:28;;;;;;;7.10;2.50;;;;;;;-145.79;54.32;75605.66;5302992;28;20039;-78
2023/06/20 15:38:00;;;;;;;6.10;2.70;;;;;;;-145.79;55.12;75597.19;5304002;28;20059;-78
2023/06/20 15:40:31;;;;;;;3.75;2.60;;;;;;;-145.79;53.68;75628.97;5303768;28;20028;-78
2023/06/20 15:43:05;;;;;;;3.97;2.60;;;;;;;-145.79;55.19;75635.31;5303879;28;20473;-78
2023/06/20 15:45:39;;;;;;;5.60;2.80;;;;;;;-145.79;55.28;75648.03;5307923;28;20016;-78
2023/06/20 15:48:10;;;;;;;3.97;2.92;;;;;;;-145.79;55.39;75701.00;5307532;28;20021;-77
2023/06/20 15:50:42;;;;;;;3.92;3.03;;;;;;;-145.79;57.15;75745.50;5324459;28;20028;-78
2023/06/20 15:53:13;;;;;;;5.43;2.95;;;;;;;-145.79;58.09;75785.75;5327601;28;20093;-78
2023/06/20 15:55:44;;;;;;;3.50;2.70;;;;;;;-145.79;59.42;75817.53;5328043;28;20037;-78
2023/06/20 15:58:16;;;;;;;6.75;3.30;;;;;;;-145.79;58.89;75806.94;5328735;28;20435;-79
2023/06/20 16:00:47;;;;;;;5.40;3.28;;;;;;;-145.79;58.45;75828.13;5328643;28;20032;-79
2023/06/20 16:03:18;;;;;;;7.65;3.38;;;;;;;-145.79;61.31;75885.34;5327769;28;20028;-79
2023/06/20 16:05:53;;;;;;;5.32;3.70;;;;;;;-145.79;63.61;75872.63;5329152;28;20046;-79
2023/06/20 16:08:25;;;;;;;4.75;3.95;;;;;;;-145.79;64.43;75891.69;5329308;28;20020;-81
2023/06/20 16:10:57;;;;;;;6.25;3.25;;;;;;;-145.79;64.74;75900.16;5327110;28;20046;-79
2023/06/20 16:13:29;;;;;;;5.03;3.50;;;;;;;-145.79;64.65;75953.13;5329100;28;20382;-79
2023/06/20 16:16:01;;;;;;;7.00;3.42;;;;;;;-145.79;65.12;75948.91;5328771;28;20119;-78
2023/06/20 16:18:33;;;;;;;5.25;3.40;;;;;;;-145.79;65.31;76029.41;5329064;28;20459;-78
2023/06/20 16:21:04;;;;;;;6.78;3.63;;;;;;;-145.79;66.06;75989.16;5328658;28;20043;-79
2023/06/20 16:23:36;;;;;;;4.72;4.00;;;;;;;-145.79;65.58;75980.69;5329648;28;20035;-77
2023/06/20 16:26:10;;;;;;;4.88;3.78;;;;;;;-145.79;65.26;75984.91;5329355;28;20030;-78
2023/06/20 16:28:42;;;;;;;4.15;3.65;;;;;;;-145.79;65.27;75999.75;5310037;28;20110;-78
2023/06/20 16:31:15;;;;;;;5.57;3.55;;;;;;;-145.79;65.55;75997.63;5327890;28;20102;-77
2023/06/20 16:33:46;;;;;;;6.70;5.97;;;;;;;-145.79;65.11;75955.25;5329181;28;20019;-77
2023/06/20 16:36:18;;;;;;;6.20;4.68;;;;;;;-145.79;64.58;75959.50;5327917;28;20058;-78
2023/06/20 16:38:53;;;;;;;4.20;3.72;;;;;;;-145.79;64.44;75944.66;5327424;28;20058;-77
2023/06/20 16:41:24;;;;;;;5.40;4.32;;;;;;;-145.79;63.39;75944.66;5323414;28;20061;-77
2023/06/20 16:43:56;;;;;;;8.25;6.90;;;;;;;-145.79;63.92;75995.50;5332746;27;20408;-77
2023/06/20 16:46:27;;;;;;;8.00;5.22;;;;;;;-145.79;64.62;76012.47;5307022;27;20021;-78
2023/06/20 16:48:58;;;;;;;4.22;3.83;;;;;;;-145.79;65.14;76008.22;5330698;27;20464;-78
2023/06/20 16:51:30;;;;;;;6.00;4.15;;;;;;;-145.79;65.25;76010.34;5350916;27;20015;-78
2023/06/20 16:54:02;;;;;;;4.53;4.13;;;;;;;-145.79;65.16;76001.88;5349772;27;20020;-77
